首页
METAR-TAF:

METAR-TAF

机场 :

墨西卡利, 墨西哥

纬度: 32-37-50N, 经度: 115-14-30W, 海拔: 22米

当前天气观测

该预报发布于1小时和5分钟前的22:42 UTC
风速12节,风向东南
温度 38°C
湿度 33%
气压 1009 hPa
能見度: 16.1公里
多云层高于20000英尺

METAR: MMML 212242Z 13012KT 10SM BKN200 38/19 A2979 RMK 8/002

时间: 18:47 (23:47 UTC)

预报

该预报发布于6小时和50分钟前的16:57 UTC
预报有效从21日的 18点(UTC)到 22日的 18点(UTC)
风速12节,风向南转南东
能見度: 10公里
天空无云
从 22日的 0000点(UTC)
风速15节,风向东南
能見度: 10公里
散云层高于4000英尺
几率 40%
从 22日的 02点(UTC)到 22日的 06点(UTC)
能見度: 8.0公里
多云层高于3000英尺, 积雨云.
雷暴, 雨
从 22日的 0900点(UTC)
风速10节,风向东转东南
能見度: 10公里
散云层高于10000英尺
多云层高于20000英尺

TAF: MMML 211657Z 2118/2218 16012KT P6SM SKC FM220000 14015KT P6SM SCT040 PROB40 2202/2206 5SM TSRA BKN030CB FM220900 12010KT P6SM SCT100 BKN200

超过4000个机场的气象观测和天气预报(METAR&TAF报告)。

可查询的气象台以黄色和红色小点在地图上表示。

将鼠标移到小点上方,可查看气象台名称。

然后点击查看天气观测和预报。

如需切换地图:点击带黑十字的绿色按钮放大地图;点击带横线的绿色按钮缩小地图;或者点击绿色箭头查看邻近地区的地图。


METAR-TAF: